sensor_id;sensor_type;location;lat;lon;timestamp;P1;durP1;ratioP1;P2;durP2;ratioP2
9413;SDS011;4746;35.664;139.738;2024-01-25T00:02:20;1.87;;;1.43;;
9413;SDS011;4746;35.664;139.738;2024-01-25T00:04:47;1.57;;;1.47;;
9413;SDS011;4746;35.664;139.738;2024-01-25T00:07:15;1.50;;;1.40;;
9413;SDS011;4746;35.664;139.738;2024-01-25T00:09:42;1.43;;;1.33;;
9413;SDS011;4746;35.664;139.738;2024-01-25T00:12:10;1.30;;;1.20;;
9413;SDS011;4746;35.664;139.738;2024-01-25T00:14:37;3.27;;;1.50;;
9413;SDS011;4746;35.664;139.738;2024-01-25T00:17:05;1.77;;;1.40;;
9413;SDS011;4746;35.664;139.738;2024-01-25T00:19:35;1.40;;;1.30;;
9413;SDS011;4746;35.664;139.738;2024-01-25T00:22:02;1.47;;;1.07;;
9413;SDS011;4746;35.664;139.738;2024-01-25T00:24:30;1.00;;;1.00;;
9413;SDS011;4746;35.664;139.738;2024-01-25T00:26:58;1.13;;;1.10;;
9413;SDS011;4746;35.664;139.738;2024-01-25T00:29:26;1.53;;;1.13;;
9413;SDS011;4746;35.664;139.738;2024-01-25T00:31:53;2.07;;;1.67;;
9413;SDS011;4746;35.664;139.738;2024-01-25T00:34:21;1.00;;;1.00;;
9413;SDS011;4746;35.664;139.738;2024-01-25T00:36:50;1.47;;;1.37;;
9413;SDS011;4746;35.664;139.738;2024-01-25T00:39:19;1.80;;;1.23;;
9413;SDS011;4746;35.664;139.738;2024-01-25T00:41:46;1.00;;;1.00;;
9413;SDS011;4746;35.664;139.738;2024-01-25T00:44:22;1.17;;;1.17;;
9413;SDS011;4746;35.664;139.738;2024-01-25T00:46:51;1.00;;;1.00;;
9413;SDS011;4746;35.664;139.738;2024-01-25T00:49:19;0.90;;;0.90;;
9413;SDS011;4746;35.664;139.738;2024-01-25T00:51:47;1.50;;;1.10;;
9413;SDS011;4746;35.664;139.738;2024-01-25T00:54:16;1.00;;;1.00;;
9413;SDS011;4746;35.664;139.738;2024-01-25T00:56:44;0.87;;;0.87;;
9413;SDS011;4746;35.664;139.738;2024-01-25T00:59:16;1.17;;;1.07;;
9413;SDS011;4746;35.664;139.738;2024-01-25T01:01:46;1.00;;;1.00;;
9413;SDS011;4746;35.664;139.738;2024-01-25T01:04:14;1.43;;;1.10;;
9413;SDS011;4746;35.664;139.738;2024-01-25T01:06:42;1.37;;;1.20;;
9413;SDS011;4746;35.664;139.738;2024-01-25T01:09:10;1.20;;;1.17;;
9413;SDS011;4746;35.664;139.738;2024-01-25T01:11:38;1.30;;;1.20;;
9413;SDS011;4746;35.664;139.738;2024-01-25T01:14:05;1.53;;;1.20;;
9413;SDS011;4746;35.664;139.738;2024-01-25T01:16:33;1.00;;;1.00;;
9413;SDS011;4746;35.664;139.738;2024-01-25T01:19:01;1.53;;;1.43;;
9413;SDS011;4746;35.664;139.738;2024-01-25T01:21:35;1.63;;;1.00;;
9413;SDS011;4746;35.664;139.738;2024-01-25T01:24:06;1.30;;;1.20;;
9413;SDS011;4746;35.664;139.738;2024-01-25T01:26:34;1.17;;;1.17;;
9413;SDS011;4746;35.664;139.738;2024-01-25T01:29:01;0.83;;;0.83;;
9413;SDS011;4746;35.664;139.738;2024-01-25T01:31:29;1.10;;;0.90;;
9413;SDS011;4746;35.664;139.738;2024-01-25T01:33:57;2.50;;;1.37;;
9413;SDS011;4746;35.664;139.738;2024-01-25T01:36:26;2.03;;;1.10;;
9413;SDS011;4746;35.664;139.738;2024-01-25T01:38:53;1.10;;;0.90;;
9413;SDS011;4746;35.664;139.738;2024-01-25T01:41:21;1.40;;;1.27;;
9413;SDS011;4746;35.664;139.738;2024-01-25T01:43:52;1.30;;;1.20;;
9413;SDS011;4746;35.664;139.738;2024-01-25T01:46:33;1.00;;;1.00;;
9413;SDS011;4746;35.664;139.738;2024-01-25T01:49:06;1.00;;;1.00;;
9413;SDS011;4746;35.664;139.738;2024-01-25T01:51:36;1.53;;;1.17;;
9413;SDS011;4746;35.664;139.738;2024-01-25T01:54:06;1.97;;;1.13;;
9413;SDS011;4746;35.664;139.738;2024-01-25T01:56:34;1.60;;;0.90;;
9413;SDS011;4746;35.664;139.738;2024-01-25T01:59:04;1.00;;;1.00;;
9413;SDS011;4746;35.664;139.738;2024-01-25T02:01:36;1.20;;;1.17;;
9413;SDS011;4746;35.664;139.738;2024-01-25T02:04:04;1.33;;;0.77;;
9413;SDS011;4746;35.664;139.738;2024-01-25T02:06:32;0.90;;;0.90;;
9413;SDS011;4746;35.664;139.738;2024-01-25T02:09:00;0.80;;;0.80;;
9413;SDS011;4746;35.664;139.738;2024-01-25T02:11:28;2.50;;;0.90;;
9413;SDS011;4746;35.664;139.738;2024-01-25T02:13:56;0.83;;;0.83;;
9413;SDS011;4746;35.664;139.738;2024-01-25T02:16:23;3.17;;;1.30;;
9413;SDS011;4746;35.664;139.738;2024-01-25T02:18:51;0.83;;;0.83;;
9413;SDS011;4746;35.664;139.738;2024-01-25T02:21:23;2.57;;;1.10;;
9413;SDS011;4746;35.664;139.738;2024-01-25T02:23:50;1.13;;;1.03;;
9413;SDS011;4746;35.664;139.738;2024-01-25T02:26:18;1.10;;;1.00;;
9413;SDS011;4746;35.664;139.738;2024-01-25T02:28:45;0.90;;;0.90;;
9413;SDS011;4746;35.664;139.738;2024-01-25T02:31:13;0.83;;;0.83;;
9413;SDS011;4746;35.664;139.738;2024-01-25T02:33:40;0.90;;;0.83;;
9413;SDS011;4746;35.664;139.738;2024-01-25T02:36:08;2.00;;;1.03;;
9413;SDS011;4746;35.664;139.738;2024-01-25T02:38:35;0.93;;;0.90;;
9413;SDS011;4746;35.664;139.738;2024-01-25T02:41:03;0.80;;;0.80;;
9413;SDS011;4746;35.664;139.738;2024-01-25T02:43:31;3.40;;;1.00;;
9413;SDS011;4746;35.664;139.738;2024-01-25T02:45:58;1.77;;;1.30;;
9413;SDS011;4746;35.664;139.738;2024-01-25T02:48:26;2.73;;;1.07;;
9413;SDS011;4746;35.664;139.738;2024-01-25T02:50:53;0.80;;;0.80;;
9413;SDS011;4746;35.664;139.738;2024-01-25T02:53:21;1.13;;;0.70;;
9413;SDS011;4746;35.664;139.738;2024-01-25T02:55:48;0.60;;;0.60;;
9413;SDS011;4746;35.664;139.738;2024-01-25T02:58:16;1.00;;;0.80;;
9413;SDS011;4746;35.664;139.738;2024-01-25T03:00:43;0.93;;;0.70;;
9413;SDS011;4746;35.664;139.738;2024-01-25T03:03:11;1.27;;;0.87;;
9413;SDS011;4746;35.664;139.738;2024-01-25T03:05:38;1.63;;;0.80;;
9413;SDS011;4746;35.664;139.738;2024-01-25T03:08:08;0.87;;;0.87;;
9413;SDS011;4746;35.664;139.738;2024-01-25T03:10:35;1.23;;;0.80;;
9413;SDS011;4746;35.664;139.738;2024-01-25T03:13:03;1.03;;;0.90;;
9413;SDS011;4746;35.664;139.738;2024-01-25T03:15:30;2.00;;;0.90;;
9413;SDS011;4746;35.664;139.738;2024-01-25T03:17:58;0.73;;;0.73;;
9413;SDS011;4746;35.664;139.738;2024-01-25T03:20:25;2.10;;;0.80;;
9413;SDS011;4746;35.664;139.738;2024-01-25T03:22:53;0.50;;;0.50;;
9413;SDS011;4746;35.664;139.738;2024-01-25T03:25:21;1.47;;;0.90;;
9413;SDS011;4746;35.664;139.738;2024-01-25T03:27:48;1.17;;;0.60;;
9413;SDS011;4746;35.664;139.738;2024-01-25T03:30:16;0.67;;;0.67;;
9413;SDS011;4746;35.664;139.738;2024-01-25T03:32:43;0.77;;;0.77;;
9413;SDS011;4746;35.664;139.738;2024-01-25T03:35:13;0.90;;;0.90;;
9413;SDS011;4746;35.664;139.738;2024-01-25T03:37:41;1.80;;;0.80;;
9413;SDS011;4746;35.664;139.738;2024-01-25T03:40:08;0.93;;;0.83;;
9413;SDS011;4746;35.664;139.738;2024-01-25T03:42:36;1.57;;;1.00;;
9413;SDS011;4746;35.664;139.738;2024-01-25T03:45:04;0.77;;;0.77;;
9413;SDS011;4746;35.664;139.738;2024-01-25T03:47:32;1.00;;;1.00;;
9413;SDS011;4746;35.664;139.738;2024-01-25T03:49:59;1.30;;;0.93;;
9413;SDS011;4746;35.664;139.738;2024-01-25T03:52:27;2.00;;;0.80;;
9413;SDS011;4746;35.664;139.738;2024-01-25T03:54:55;0.90;;;0.90;;
9413;SDS011;4746;35.664;139.738;2024-01-25T03:57:23;1.07;;;1.00;;
9413;SDS011;4746;35.664;139.738;2024-01-25T03:59:51;0.93;;;0.87;;
9413;SDS011;4746;35.664;139.738;2024-01-25T04:02:18;2.60;;;0.70;;
9413;SDS011;4746;35.664;139.738;2024-01-25T04:04:46;3.37;;;1.30;;
9413;SDS011;4746;35.664;139.738;2024-01-25T04:07:13;1.80;;;0.90;;
9413;SDS011;4746;35.664;139.738;2024-01-25T04:09:41;0.80;;;0.60;;
9413;SDS011;4746;35.664;139.738;2024-01-25T04:12:08;0.70;;;0.70;;
9413;SDS011;4746;35.664;139.738;2024-01-25T04:14:36;1.27;;;1.17;;
9413;SDS011;4746;35.664;139.738;2024-01-25T04:17:04;0.83;;;0.80;;
9413;SDS011;4746;35.664;139.738;2024-01-25T04:19:31;0.60;;;0.60;;
9413;SDS011;4746;35.664;139.738;2024-01-25T04:21:59;0.80;;;0.80;;
9413;SDS011;4746;35.664;139.738;2024-01-25T04:24:26;2.40;;;0.90;;
9413;SDS011;4746;35.664;139.738;2024-01-25T04:26:54;0.97;;;0.60;;
9413;SDS011;4746;35.664;139.738;2024-01-25T04:29:22;2.70;;;0.60;;
9413;SDS011;4746;35.664;139.738;2024-01-25T04:31:49;1.83;;;0.67;;
9413;SDS011;4746;35.664;139.738;2024-01-25T04:34:17;0.40;;;0.40;;
9413;SDS011;4746;35.664;139.738;2024-01-25T04:36:44;1.30;;;0.70;;
9413;SDS011;4746;35.664;139.738;2024-01-25T04:39:12;0.50;;;0.50;;
9413;SDS011;4746;35.664;139.738;2024-01-25T04:41:39;0.60;;;0.50;;
9413;SDS011;4746;35.664;139.738;2024-01-25T04:44:07;0.80;;;0.53;;
9413;SDS011;4746;35.664;139.738;2024-01-25T04:46:35;0.70;;;0.60;;
9413;SDS011;4746;35.664;139.738;2024-01-25T04:49:03;0.40;;;0.40;;
9413;SDS011;4746;35.664;139.738;2024-01-25T04:51:30;0.60;;;0.60;;
9413;SDS011;4746;35.664;139.738;2024-01-25T04:53:58;1.20;;;0.67;;
9413;SDS011;4746;35.664;139.738;2024-01-25T04:56:25;1.03;;;0.63;;
9413;SDS011;4746;35.664;139.738;2024-01-25T04:58:53;1.00;;;0.70;;
9413;SDS011;4746;35.664;139.738;2024-01-25T05:01:20;3.20;;;0.90;;
9413;SDS011;4746;35.664;139.738;2024-01-25T05:03:48;2.73;;;0.60;;
9413;SDS011;4746;35.664;139.738;2024-01-25T05:06:15;1.00;;;0.90;;
9413;SDS011;4746;35.664;139.738;2024-01-25T05:08:43;0.80;;;0.80;;
9413;SDS011;4746;35.664;139.738;2024-01-25T05:11:10;0.53;;;0.53;;
9413;SDS011;4746;35.664;139.738;2024-01-25T05:13:38;0.67;;;0.67;;
9413;SDS011;4746;35.664;139.738;2024-01-25T05:16:06;0.70;;;0.70;;
9413;SDS011;4746;35.664;139.738;2024-01-25T05:18:33;1.60;;;1.00;;
9413;SDS011;4746;35.664;139.738;2024-01-25T05:21:01;0.40;;;0.40;;
9413;SDS011;4746;35.664;139.738;2024-01-25T05:23:28;1.40;;;0.87;;
9413;SDS011;4746;35.664;139.738;2024-01-25T05:25:55;0.97;;;0.67;;
9413;SDS011;4746;35.664;139.738;2024-01-25T05:28:23;1.23;;;0.50;;
9413;SDS011;4746;35.664;139.738;2024-01-25T05:30:51;1.03;;;0.70;;
9413;SDS011;4746;35.664;139.738;2024-01-25T05:33:18;1.33;;;0.60;;
9413;SDS011;4746;35.664;139.738;2024-01-25T05:35:46;1.13;;;0.70;;
9413;SDS011;4746;35.664;139.738;2024-01-25T05:38:13;1.50;;;1.10;;
9413;SDS011;4746;35.664;139.738;2024-01-25T05:40:42;0.60;;;0.57;;
9413;SDS011;4746;35.664;139.738;2024-01-25T05:43:09;0.60;;;0.50;;
9413;SDS011;4746;35.664;139.738;2024-01-25T05:45:37;1.07;;;0.50;;
9413;SDS011;4746;35.664;139.738;2024-01-25T05:48:04;1.40;;;0.50;;
9413;SDS011;4746;35.664;139.738;2024-01-25T05:50:32;2.60;;;0.90;;
9413;SDS011;4746;35.664;139.738;2024-01-25T05:53:00;0.80;;;0.73;;
9413;SDS011;4746;35.664;139.738;2024-01-25T05:55:27;1.00;;;0.67;;
9413;SDS011;4746;35.664;139.738;2024-01-25T05:57:54;0.80;;;0.80;;
9413;SDS011;4746;35.664;139.738;2024-01-25T06:00:22;0.70;;;0.67;;
9413;SDS011;4746;35.664;139.738;2024-01-25T06:02:50;1.90;;;0.60;;
9413;SDS011;4746;35.664;139.738;2024-01-25T06:05:17;4.57;;;0.70;;
9413;SDS011;4746;35.664;139.738;2024-01-25T06:07:45;1.00;;;0.80;;
9413;SDS011;4746;35.664;139.738;2024-01-25T06:10:14;1.07;;;0.80;;
9413;SDS011;4746;35.664;139.738;2024-01-25T06:12:41;1.30;;;0.80;;
9413;SDS011;4746;35.664;139.738;2024-01-25T06:15:09;1.70;;;0.57;;
9413;SDS011;4746;35.664;139.738;2024-01-25T06:17:36;0.93;;;0.60;;
9413;SDS011;4746;35.664;139.738;2024-01-25T06:20:04;0.70;;;0.70;;
9413;SDS011;4746;35.664;139.738;2024-01-25T06:22:32;0.80;;;0.80;;
9413;SDS011;4746;35.664;139.738;2024-01-25T06:24:59;0.40;;;0.40;;
9413;SDS011;4746;35.664;139.738;2024-01-25T06:27:29;1.27;;;0.60;;
9413;SDS011;4746;35.664;139.738;2024-01-25T06:29:56;0.77;;;0.73;;
9413;SDS011;4746;35.664;139.738;2024-01-25T06:32:24;0.60;;;0.60;;
9413;SDS011;4746;35.664;139.738;2024-01-25T06:34:51;1.07;;;0.80;;
9413;SDS011;4746;35.664;139.738;2024-01-25T06:37:19;0.60;;;0.57;;
9413;SDS011;4746;35.664;139.738;2024-01-25T06:39:46;0.87;;;0.60;;
9413;SDS011;4746;35.664;139.738;2024-01-25T06:42:14;1.33;;;0.90;;
9413;SDS011;4746;35.664;139.738;2024-01-25T06:44:41;0.60;;;0.60;;
9413;SDS011;4746;35.664;139.738;2024-01-25T06:47:10;1.03;;;0.80;;
9413;SDS011;4746;35.664;139.738;2024-01-25T06:49:37;0.77;;;0.47;;
9413;SDS011;4746;35.664;139.738;2024-01-25T06:52:05;4.03;;;0.70;;
9413;SDS011;4746;35.664;139.738;2024-01-25T06:54:32;2.87;;;0.73;;
9413;SDS011;4746;35.664;139.738;2024-01-25T06:57:00;2.30;;;0.70;;
9413;SDS011;4746;35.664;139.738;2024-01-25T06:59:28;1.13;;;0.60;;
9413;SDS011;4746;35.664;139.738;2024-01-25T07:01:56;1.67;;;0.53;;
9413;SDS011;4746;35.664;139.738;2024-01-25T07:04:23;1.07;;;0.63;;
9413;SDS011;4746;35.664;139.738;2024-01-25T07:06:51;0.70;;;0.50;;
9413;SDS011;4746;35.664;139.738;2024-01-25T07:09:18;1.73;;;0.83;;
9413;SDS011;4746;35.664;139.738;2024-01-25T07:11:46;0.90;;;0.67;;
9413;SDS011;4746;35.664;139.738;2024-01-25T07:14:13;0.80;;;0.70;;
9413;SDS011;4746;35.664;139.738;2024-01-25T07:16:41;0.50;;;0.50;;
9413;SDS011;4746;35.664;139.738;2024-01-25T07:19:08;0.77;;;0.60;;
9413;SDS011;4746;35.664;139.738;2024-01-25T07:21:36;0.67;;;0.63;;
9413;SDS011;4746;35.664;139.738;2024-01-25T07:24:05;0.60;;;0.60;;
9413;SDS011;4746;35.664;139.738;2024-01-25T07:26:33;0.70;;;0.70;;
9413;SDS011;4746;35.664;139.738;2024-01-25T07:29:02;0.87;;;0.60;;
9413;SDS011;4746;35.664;139.738;2024-01-25T07:31:29;0.80;;;0.67;;
9413;SDS011;4746;35.664;139.738;2024-01-25T07:33:57;1.93;;;0.80;;
9413;SDS011;4746;35.664;139.738;2024-01-25T07:36:24;0.97;;;0.80;;
9413;SDS011;4746;35.664;139.738;2024-01-25T07:38:52;1.57;;;0.90;;
9413;SDS011;4746;35.664;139.738;2024-01-25T07:41:19;1.27;;;1.03;;
9413;SDS011;4746;35.664;139.738;2024-01-25T07:43:47;1.13;;;1.00;;
9413;SDS011;4746;35.664;139.738;2024-01-25T07:46:15;1.07;;;1.00;;
9413;SDS011;4746;35.664;139.738;2024-01-25T07:48:42;0.97;;;0.90;;
9413;SDS011;4746;35.664;139.738;2024-01-25T07:51:10;1.13;;;1.10;;
9413;SDS011;4746;35.664;139.738;2024-01-25T07:53:39;2.00;;;1.07;;
9413;SDS011;4746;35.664;139.738;2024-01-25T07:56:07;1.30;;;0.90;;
9413;SDS011;4746;35.664;139.738;2024-01-25T07:58:36;1.10;;;1.00;;
9413;SDS011;4746;35.664;139.738;2024-01-25T08:01:04;2.40;;;1.10;;
9413;SDS011;4746;35.664;139.738;2024-01-25T08:03:32;2.20;;;1.13;;
9413;SDS011;4746;35.664;139.738;2024-01-25T08:06:01;0.93;;;0.93;;
9413;SDS011;4746;35.664;139.738;2024-01-25T08:08:29;1.10;;;1.10;;
9413;SDS011;4746;35.664;139.738;2024-01-25T08:11:00;1.70;;;1.17;;
9413;SDS011;4746;35.664;139.738;2024-01-25T08:13:29;2.17;;;1.03;;
9413;SDS011;4746;35.664;139.738;2024-01-25T08:15:57;1.00;;;1.00;;
9413;SDS011;4746;35.664;139.738;2024-01-25T08:18:25;3.80;;;1.30;;
9413;SDS011;4746;35.664;139.738;2024-01-25T08:20:55;1.23;;;0.90;;
9413;SDS011;4746;35.664;139.738;2024-01-25T08:23:22;1.23;;;1.20;;
9413;SDS011;4746;35.664;139.738;2024-01-25T08:25:50;1.17;;;1.00;;
9413;SDS011;4746;35.664;139.738;2024-01-25T08:28:17;1.93;;;1.00;;
9413;SDS011;4746;35.664;139.738;2024-01-25T08:30:45;1.50;;;1.17;;
9413;SDS011;4746;35.664;139.738;2024-01-25T08:33:13;1.13;;;0.80;;
9413;SDS011;4746;35.664;139.738;2024-01-25T08:35:42;1.17;;;1.00;;
9413;SDS011;4746;35.664;139.738;2024-01-25T08:38:09;0.90;;;0.90;;
9413;SDS011;4746;35.664;139.738;2024-01-25T08:40:37;0.90;;;0.90;;
9413;SDS011;4746;35.664;139.738;2024-01-25T08:43:04;1.87;;;1.10;;
9413;SDS011;4746;35.664;139.738;2024-01-25T08:45:32;2.20;;;1.30;;
9413;SDS011;4746;35.664;139.738;2024-01-25T08:47:59;1.50;;;1.40;;
9413;SDS011;4746;35.664;139.738;2024-01-25T08:50:27;1.10;;;1.10;;
9413;SDS011;4746;35.664;139.738;2024-01-25T08:52:54;1.27;;;1.10;;
9413;SDS011;4746;35.664;139.738;2024-01-25T08:55:22;2.13;;;1.10;;
9413;SDS011;4746;35.664;139.738;2024-01-25T08:57:52;1.13;;;1.10;;
9413;SDS011;4746;35.664;139.738;2024-01-25T09:00:19;1.30;;;1.17;;
9413;SDS011;4746;35.664;139.738;2024-01-25T09:02:47;1.20;;;1.10;;
9413;SDS011;4746;35.664;139.738;2024-01-25T09:05:14;0.90;;;0.90;;
9413;SDS011;4746;35.664;139.738;2024-01-25T09:07:45;1.20;;;0.80;;
9413;SDS011;4746;35.664;139.738;2024-01-25T09:10:13;0.90;;;0.90;;
9413;SDS011;4746;35.664;139.738;2024-01-25T09:12:40;1.30;;;1.20;;
9413;SDS011;4746;35.664;139.738;2024-01-25T09:15:08;1.07;;;1.00;;
9413;SDS011;4746;35.664;139.738;2024-01-25T09:17:36;1.83;;;1.30;;
9413;SDS011;4746;35.664;139.738;2024-01-25T09:20:03;0.93;;;0.93;;
9413;SDS011;4746;35.664;139.738;2024-01-25T09:22:33;1.27;;;1.17;;
9413;SDS011;4746;35.664;139.738;2024-01-25T09:25:00;1.83;;;1.50;;
9413;SDS011;4746;35.664;139.738;2024-01-25T09:27:28;1.13;;;1.13;;
9413;SDS011;4746;35.664;139.738;2024-01-25T09:29:55;1.20;;;1.10;;
9413;SDS011;4746;35.664;139.738;2024-01-25T09:32:23;1.13;;;1.10;;
9413;SDS011;4746;35.664;139.738;2024-01-25T09:34:50;1.17;;;1.17;;
9413;SDS011;4746;35.664;139.738;2024-01-25T09:37:19;1.50;;;1.40;;
9413;SDS011;4746;35.664;139.738;2024-01-25T09:39:50;2.17;;;1.00;;
9413;SDS011;4746;35.664;139.738;2024-01-25T09:42:18;1.33;;;1.17;;
9413;SDS011;4746;35.664;139.738;2024-01-25T09:44:45;1.30;;;1.00;;
9413;SDS011;4746;35.664;139.738;2024-01-25T09:47:13;1.87;;;1.40;;
9413;SDS011;4746;35.664;139.738;2024-01-25T09:49:42;1.90;;;1.27;;
9413;SDS011;4746;35.664;139.738;2024-01-25T09:52:11;1.33;;;1.23;;
9413;SDS011;4746;35.664;139.738;2024-01-25T09:54:40;1.37;;;1.37;;
9413;SDS011;4746;35.664;139.738;2024-01-25T09:57:15;1.50;;;1.40;;
9413;SDS011;4746;35.664;139.738;2024-01-25T09:59:49;1.30;;;1.23;;
9413;SDS011;4746;35.664;139.738;2024-01-25T10:02:19;1.20;;;1.20;;
9413;SDS011;4746;35.664;139.738;2024-01-25T10:04:50;1.10;;;1.10;;
9413;SDS011;4746;35.664;139.738;2024-01-25T10:10:09;1.20;;;1.10;;
9413;SDS011;4746;35.664;139.738;2024-01-25T10:12:39;1.50;;;1.40;;
9413;SDS011;4746;35.664;139.738;2024-01-25T10:15:09;1.30;;;1.20;;
9413;SDS011;4746;35.664;139.738;2024-01-25T10:17:36;1.67;;;1.30;;
9413;SDS011;4746;35.664;139.738;2024-01-25T10:20:05;1.13;;;1.13;;
9413;SDS011;4746;35.664;139.738;2024-01-25T10:22:36;1.60;;;1.50;;
9413;SDS011;4746;35.664;139.738;2024-01-25T10:25:05;1.77;;;1.30;;
9413;SDS011;4746;35.664;139.738;2024-01-25T10:27:40;1.90;;;1.80;;
9413;SDS011;4746;35.664;139.738;2024-01-25T10:30:07;1.40;;;1.30;;
9413;SDS011;4746;35.664;139.738;2024-01-25T10:32:39;1.43;;;1.40;;
9413;SDS011;4746;35.664;139.738;2024-01-25T10:35:10;1.23;;;1.20;;
9413;SDS011;4746;35.664;139.738;2024-01-25T10:37:40;1.20;;;1.10;;
9413;SDS011;4746;35.664;139.738;2024-01-25T10:40:09;1.60;;;1.50;;
9413;SDS011;4746;35.664;139.738;2024-01-25T10:42:39;1.37;;;1.37;;
9413;SDS011;4746;35.664;139.738;2024-01-25T10:45:08;1.63;;;1.43;;
9413;SDS011;4746;35.664;139.738;2024-01-25T10:47:37;1.93;;;1.80;;
9413;SDS011;4746;35.664;139.738;2024-01-25T10:50:06;1.20;;;1.20;;
9413;SDS011;4746;35.664;139.738;2024-01-25T10:52:35;3.77;;;1.40;;
9413;SDS011;4746;35.664;139.738;2024-01-25T10:55:04;1.23;;;1.23;;
9413;SDS011;4746;35.664;139.738;2024-01-25T10:57:37;1.23;;;1.10;;
9413;SDS011;4746;35.664;139.738;2024-01-25T11:00:09;1.53;;;1.43;;
9413;SDS011;4746;35.664;139.738;2024-01-25T11:02:43;2.13;;;1.83;;
9413;SDS011;4746;35.664;139.738;2024-01-25T11:05:13;1.60;;;1.50;;
9413;SDS011;4746;35.664;139.738;2024-01-25T11:07:43;1.70;;;1.47;;
9413;SDS011;4746;35.664;139.738;2024-01-25T11:15:33;1.47;;;1.37;;
9413;SDS011;4746;35.664;139.738;2024-01-25T11:18:03;1.40;;;1.30;;
9413;SDS011;4746;35.664;139.738;2024-01-25T11:20:35;1.60;;;1.50;;
9413;SDS011;4746;35.664;139.738;2024-01-25T11:23:03;1.40;;;1.40;;
9413;SDS011;4746;35.664;139.738;2024-01-25T11:25:35;1.60;;;1.50;;
9413;SDS011;4746;35.664;139.738;2024-01-25T11:28:04;1.40;;;1.30;;
9413;SDS011;4746;35.664;139.738;2024-01-25T11:30:33;1.60;;;1.33;;
9413;SDS011;4746;35.664;139.738;2024-01-25T11:33:11;1.50;;;1.40;;
9413;SDS011;4746;35.664;139.738;2024-01-25T11:35:40;1.33;;;1.23;;
9413;SDS011;4746;35.664;139.738;2024-01-25T11:38:08;1.47;;;1.10;;
9413;SDS011;4746;35.664;139.738;2024-01-25T11:40:36;1.27;;;1.27;;
9413;SDS011;4746;35.664;139.738;2024-01-25T11:43:04;1.13;;;1.03;;
9413;SDS011;4746;35.664;139.738;2024-01-25T11:45:37;1.10;;;1.10;;
9413;SDS011;4746;35.664;139.738;2024-01-25T11:48:08;1.40;;;1.40;;
9413;SDS011;4746;35.664;139.738;2024-01-25T11:50:36;1.17;;;1.07;;
9413;SDS011;4746;35.664;139.738;2024-01-25T11:53:03;1.00;;;1.00;;
9413;SDS011;4746;35.664;139.738;2024-01-25T11:55:31;2.30;;;1.50;;
9413;SDS011;4746;35.664;139.738;2024-01-25T11:58:00;1.83;;;1.60;;
9413;SDS011;4746;35.664;139.738;2024-01-25T12:00:28;1.30;;;1.20;;
9413;SDS011;4746;35.664;139.738;2024-01-25T12:02:55;1.43;;;1.33;;
9413;SDS011;4746;35.664;139.738;2024-01-25T12:05:23;1.30;;;1.20;;
9413;SDS011;4746;35.664;139.738;2024-01-25T12:07:52;1.10;;;1.10;;
9413;SDS011;4746;35.664;139.738;2024-01-25T12:10:22;0.90;;;0.90;;
9413;SDS011;4746;35.664;139.738;2024-01-25T12:12:51;1.90;;;1.20;;
9413;SDS011;4746;35.664;139.738;2024-01-25T12:15:18;1.57;;;1.20;;
9413;SDS011;4746;35.664;139.738;2024-01-25T12:17:47;1.10;;;1.10;;
9413;SDS011;4746;35.664;139.738;2024-01-25T12:20:14;1.30;;;1.20;;
9413;SDS011;4746;35.664;139.738;2024-01-25T12:22:43;1.37;;;1.00;;
9413;SDS011;4746;35.664;139.738;2024-01-25T12:25:15;1.83;;;1.17;;
9413;SDS011;4746;35.664;139.738;2024-01-25T12:27:43;1.53;;;1.43;;
9413;SDS011;4746;35.664;139.738;2024-01-25T12:30:15;1.40;;;1.30;;
9413;SDS011;4746;35.664;139.738;2024-01-25T12:32:43;1.27;;;1.17;;
9413;SDS011;4746;35.664;139.738;2024-01-25T12:35:10;1.10;;;1.10;;
9413;SDS011;4746;35.664;139.738;2024-01-25T12:37:38;1.50;;;1.40;;
9413;SDS011;4746;35.664;139.738;2024-01-25T12:40:06;1.33;;;1.23;;
9413;SDS011;4746;35.664;139.738;2024-01-25T12:42:34;1.00;;;1.00;;
9413;SDS011;4746;35.664;139.738;2024-01-25T12:45:01;1.20;;;1.20;;
9413;SDS011;4746;35.664;139.738;2024-01-25T12:47:30;1.30;;;1.30;;
9413;SDS011;4746;35.664;139.738;2024-01-25T12:49:58;1.07;;;1.07;;
9413;SDS011;4746;35.664;139.738;2024-01-25T12:52:25;1.10;;;1.07;;
9413;SDS011;4746;35.664;139.738;2024-01-25T12:54:53;1.20;;;1.10;;
9413;SDS011;4746;35.664;139.738;2024-01-25T12:57:21;1.00;;;1.00;;
9413;SDS011;4746;35.664;139.738;2024-01-25T12:59:49;1.47;;;1.37;;
9413;SDS011;4746;35.664;139.738;2024-01-25T13:02:16;1.40;;;1.30;;
9413;SDS011;4746;35.664;139.738;2024-01-25T13:04:45;1.30;;;1.20;;
9413;SDS011;4746;35.664;139.738;2024-01-25T13:07:13;2.00;;;1.10;;
9413;SDS011;4746;35.664;139.738;2024-01-25T13:09:40;0.90;;;0.90;;
9413;SDS011;4746;35.664;139.738;2024-01-25T13:12:08;1.00;;;1.00;;
9413;SDS011;4746;35.664;139.738;2024-01-25T13:14:36;1.00;;;0.90;;
9413;SDS011;4746;35.664;139.738;2024-01-25T13:17:04;1.40;;;1.30;;
9413;SDS011;4746;35.664;139.738;2024-01-25T13:19:33;1.10;;;1.10;;
9413;SDS011;4746;35.664;139.738;2024-01-25T13:22:01;1.30;;;1.20;;
9413;SDS011;4746;35.664;139.738;2024-01-25T13:24:29;1.07;;;1.07;;
9413;SDS011;4746;35.664;139.738;2024-01-25T13:26:56;1.03;;;1.03;;
9413;SDS011;4746;35.664;139.738;2024-01-25T13:29:24;1.10;;;1.10;;
9413;SDS011;4746;35.664;139.738;2024-01-25T13:31:51;1.00;;;0.90;;
9413;SDS011;4746;35.664;139.738;2024-01-25T13:34:19;1.40;;;1.30;;
9413;SDS011;4746;35.664;139.738;2024-01-25T13:36:46;1.20;;;1.10;;
9413;SDS011;4746;35.664;139.738;2024-01-25T13:39:14;1.00;;;1.00;;
9413;SDS011;4746;35.664;139.738;2024-01-25T13:41:41;1.20;;;1.20;;
9413;SDS011;4746;35.664;139.738;2024-01-25T13:44:09;0.80;;;0.80;;
9413;SDS011;4746;35.664;139.738;2024-01-25T13:46:36;1.10;;;1.00;;
9413;SDS011;4746;35.664;139.738;2024-01-25T13:49:03;1.07;;;1.07;;
9413;SDS011;4746;35.664;139.738;2024-01-25T13:51:33;1.20;;;0.93;;
9413;SDS011;4746;35.664;139.738;2024-01-25T13:54:01;0.90;;;0.90;;
9413;SDS011;4746;35.664;139.738;2024-01-25T13:56:28;1.00;;;1.00;;
9413;SDS011;4746;35.664;139.738;2024-01-25T13:58:58;1.93;;;1.10;;
9413;SDS011;4746;35.664;139.738;2024-01-25T14:01:26;1.17;;;1.07;;
9413;SDS011;4746;35.664;139.738;2024-01-25T14:03:53;1.33;;;0.90;;
9413;SDS011;4746;35.664;139.738;2024-01-25T14:06:21;0.90;;;0.90;;
9413;SDS011;4746;35.664;139.738;2024-01-25T14:08:50;1.00;;;1.00;;
9413;SDS011;4746;35.664;139.738;2024-01-25T14:11:18;1.07;;;1.07;;
9413;SDS011;4746;35.664;139.738;2024-01-25T14:13:45;1.20;;;1.20;;
9413;SDS011;4746;35.664;139.738;2024-01-25T14:16:13;1.30;;;1.27;;
9413;SDS011;4746;35.664;139.738;2024-01-25T14:18:42;1.10;;;1.10;;
9413;SDS011;4746;35.664;139.738;2024-01-25T14:21:11;0.80;;;0.80;;
9413;SDS011;4746;35.664;139.738;2024-01-25T14:23:39;1.10;;;1.00;;
9413;SDS011;4746;35.664;139.738;2024-01-25T14:26:06;0.90;;;0.90;;
9413;SDS011;4746;35.664;139.738;2024-01-25T14:28:34;0.90;;;0.90;;
9413;SDS011;4746;35.664;139.738;2024-01-25T14:31:01;1.00;;;1.00;;
9413;SDS011;4746;35.664;139.738;2024-01-25T14:33:29;1.00;;;1.00;;
9413;SDS011;4746;35.664;139.738;2024-01-25T14:35:56;1.37;;;1.13;;
9413;SDS011;4746;35.664;139.738;2024-01-25T14:38:24;1.27;;;1.23;;
9413;SDS011;4746;35.664;139.738;2024-01-25T14:40:51;1.10;;;1.10;;
9413;SDS011;4746;35.664;139.738;2024-01-25T14:43:19;1.60;;;1.03;;
9413;SDS011;4746;35.664;139.738;2024-01-25T14:45:46;2.40;;;1.10;;
9413;SDS011;4746;35.664;139.738;2024-01-25T14:48:14;1.00;;;1.00;;
9413;SDS011;4746;35.664;139.738;2024-01-25T14:50:42;1.00;;;1.00;;
9413;SDS011;4746;35.664;139.738;2024-01-25T14:53:10;1.43;;;1.07;;
9413;SDS011;4746;35.664;139.738;2024-01-25T14:55:38;1.83;;;1.00;;
9413;SDS011;4746;35.664;139.738;2024-01-25T14:58:06;1.47;;;1.03;;
9413;SDS011;4746;35.664;139.738;2024-01-25T15:00:35;1.73;;;1.10;;
9413;SDS011;4746;35.664;139.738;2024-01-25T15:03:05;1.90;;;1.37;;